Time;durP1;ratioP1;P1;durP2;ratioP2;P2;SDS_P1;SDS_P2;PMS_P1;PMS_P2;Temp;Humidity;BMP_temperature;BMP_pressure;BME280_temperature;BME280_humidity;BME280_pressure;Samples;Min_cycle;Max_cycle;Signal;HPM_P1;HPM_P2
2023/10/31 00:00:16;;;;;;;20.55;8.00;;;;;;;9.83;100.00;99522.06;5015994;28;20050;-74
2023/10/31 00:02:41;;;;;;;19.17;7.13;;;;;;;9.82;100.00;99524.88;5007284;28;20112;-74
2023/10/31 00:05:06;;;;;;;17.70;6.78;;;;;;;9.80;100.00;99531.22;5009885;28;20105;-74
2023/10/31 00:07:32;;;;;;;19.70;7.32;;;;;;;9.80;100.00;99533.06;5007939;28;20112;-74
2023/10/31 00:09:57;;;;;;;18.70;6.55;;;;;;;9.78;100.00;99530.53;5008314;28;20041;-73
2023/10/31 00:12:22;;;;;;;17.98;5.43;;;;;;;9.76;100.00;99524.44;4999417;28;20030;-73
2023/10/31 00:14:48;;;;;;;18.40;5.50;;;;;;;9.76;100.00;99531.66;5011733;28;20060;-74
2023/10/31 00:17:13;;;;;;;16.38;5.25;;;;;;;9.75;100.00;99540.69;5003079;28;20034;-74
2023/10/31 00:19:38;;;;;;;15.13;5.00;;;;;;;9.76;100.00;99542.38;5008556;28;20033;-74
2023/10/31 00:22:05;;;;;;;14.63;4.75;;;;;;;9.76;100.00;99543.22;5019247;28;20038;-74
2023/10/31 00:24:31;;;;;;;14.40;4.53;;;;;;;9.76;100.00;99542.38;5011650;28;20038;-74
2023/10/31 00:26:57;;;;;;;16.52;4.72;;;;;;;9.77;100.00;99542.25;5011404;28;20375;-74
2023/10/31 00:29:22;;;;;;;14.73;4.07;;;;;;;9.75;100.00;99544.22;5010542;28;20443;-74
2023/10/31 00:31:47;;;;;;;15.63;4.25;;;;;;;9.75;100.00;99544.22;5012084;28;20029;-73
2023/10/31 00:34:13;;;;;;;10.20;3.85;;;;;;;9.76;100.00;99537.03;5013556;28;20042;-73
2023/10/31 00:36:38;;;;;;;11.30;3.58;;;;;;;9.74;100.00;99545.22;5004843;28;20518;-73
2023/10/31 00:39:03;;;;;;;16.45;4.75;;;;;;;9.76;100.00;99548.59;5012999;28;20446;-74
2023/10/31 00:41:29;;;;;;;16.02;4.80;;;;;;;9.76;100.00;99539.69;5008952;28;20542;-77
2023/10/31 00:43:54;;;;;;;15.02;4.20;;;;;;;9.78;100.00;99552.00;5010562;28;20525;-77
2023/10/31 00:46:19;;;;;;;11.73;4.03;;;;;;;9.79;100.00;99556.38;5010897;28;20424;-77
2023/10/31 00:48:44;;;;;;;13.43;4.20;;;;;;;9.82;100.00;99562.44;5007365;28;20101;-78
2023/10/31 00:51:10;;;;;;;13.25;4.10;;;;;;;9.82;100.00;99567.81;5013641;28;20491;-76
2023/10/31 00:53:35;;;;;;;12.68;3.90;;;;;;;9.83;100.00;99570.34;5014914;28;20240;-74
2023/10/31 00:56:01;;;;;;;14.73;4.10;;;;;;;9.86;100.00;99578.13;5017595;28;20057;-73
2023/10/31 00:58:27;;;;;;;9.93;4.05;;;;;;;9.88;100.00;99573.50;5015497;28;20033;-73
2023/10/31 01:00:52;;;;;;;13.88;4.05;;;;;;;9.89;100.00;99571.63;5012151;28;20503;-73
2023/10/31 01:03:17;;;;;;;14.85;4.47;;;;;;;9.89;100.00;99572.47;5011126;28;20423;-73
2023/10/31 01:05:43;;;;;;;16.65;5.18;;;;;;;9.91;100.00;99577.72;5012395;28;20307;-73
2023/10/31 01:08:08;;;;;;;17.40;4.82;;;;;;;9.90;100.00;99586.75;5013043;28;20034;-74
2023/10/31 01:10:33;;;;;;;24.38;6.13;;;;;;;9.91;100.00;99585.75;5018690;28;20403;-73
2023/10/31 01:12:59;;;;;;;21.50;7.35;;;;;;;9.93;100.00;99587.31;5016356;28;20160;-73
2023/10/31 01:15:24;;;;;;;21.10;7.55;;;;;;;9.93;100.00;99589.16;5019560;28;20112;-73
2023/10/31 01:17:49;;;;;;;20.05;8.05;;;;;;;9.93;100.00;99599.91;5014557;28;20471;-74
2023/10/31 01:20:15;;;;;;;23.98;10.02;;;;;;;9.96;100.00;99596.94;5013579;28;20132;-73
2023/10/31 01:22:40;;;;;;;24.00;10.70;;;;;;;9.97;100.00;99593.25;5018928;28;20108;-73
2023/10/31 01:25:06;;;;;;;24.60;11.55;;;;;;;9.99;100.00;99593.13;5012112;28;20037;-73
2023/10/31 01:27:31;;;;;;;25.25;12.57;;;;;;;9.99;100.00;99602.03;5013982;28;20112;-73
2023/10/31 01:29:56;;;;;;;26.38;14.85;;;;;;;9.99;100.00;99602.03;5014167;28;20113;-73
2023/10/31 01:32:21;;;;;;;26.75;13.23;;;;;;;9.98;100.00;99603.00;5011965;28;20380;-73
2023/10/31 01:34:47;;;;;;;27.85;15.57;;;;;;;10.00;100.00;99602.84;5011630;28;20034;-73
2023/10/31 01:37:13;;;;;;;29.40;15.57;;;;;;;10.01;100.00;99600.03;5007105;28;20040;-74
2023/10/31 01:39:39;;;;;;;26.75;16.25;;;;;;;10.03;100.00;99597.22;5016530;28;20427;-73
2023/10/31 01:42:04;;;;;;;29.15;16.75;;;;;;;10.03;100.00;99590.03;5013600;28;20121;-73
2023/10/31 01:44:30;;;;;;;32.70;19.85;;;;;;;10.04;100.00;99593.53;5002323;28;20653;-74
2023/10/31 01:46:55;;;;;;;34.72;18.63;;;;;;;10.03;100.00;99600.75;4999251;28;20429;-73
2023/10/31 01:49:21;;;;;;;33.45;19.13;;;;;;;10.04;100.00;99594.38;5012877;28;20026;-73
2023/10/31 01:51:47;;;;;;;32.50;20.05;;;;;;;10.04;100.00;99588.19;5016139;28;20030;-74
2023/10/31 01:54:14;;;;;;;31.92;19.92;;;;;;;10.06;100.00;99589.75;5017305;28;20018;-72
2023/10/31 01:56:40;;;;;;;34.63;21.67;;;;;;;10.06;100.00;99584.38;4999482;28;20053;-72
2023/10/31 01:59:06;;;;;;;33.65;20.33;;;;;;;10.07;100.00;99593.25;5012316;28;20100;-73
2023/10/31 02:01:33;;;;;;;34.45;21.05;;;;;;;10.06;100.00;99595.09;5020512;28;20030;-73
2023/10/31 02:04:01;;;;;;;37.63;22.95;;;;;;;10.04;100.00;99601.59;5010953;28;20083;-73
2023/10/31 02:06:26;;;;;;;32.40;19.92;;;;;;;10.05;100.00;99601.47;5012823;28;20049;-73
2023/10/31 02:08:51;;;;;;;34.65;21.48;;;;;;;10.05;100.00;99606.81;5014024;28;20030;-73
2023/10/31 02:11:17;;;;;;;34.78;21.17;;;;;;;10.04;100.00;99610.50;5014635;28;20049;-74
2023/10/31 02:13:42;;;;;;;35.08;21.17;;;;;;;10.06;100.00;99605.84;5000638;28;20089;-74
2023/10/31 02:16:07;;;;;;;34.67;21.50;;;;;;;10.08;100.00;99613.75;5013849;28;20026;-73
2023/10/31 02:18:33;;;;;;;35.22;22.13;;;;;;;10.08;100.00;99600.34;5018451;28;20018;-74
2023/10/31 02:20:59;;;;;;;33.40;22.13;;;;;;;10.09;100.00;99602.03;5020460;28;20037;-73
2023/10/31 02:23:24;;;;;;;33.00;21.38;;;;;;;10.09;100.00;99605.56;5004861;28;20395;-73
2023/10/31 02:25:50;;;;;;;34.47;22.10;;;;;;;10.07;100.00;99598.63;5011767;28;20029;-73
2023/10/31 02:28:15;;;;;;;36.70;22.25;;;;;;;10.08;100.00;99600.34;4998259;28;20030;-74
2023/10/31 02:30:41;;;;;;;37.42;21.95;;;;;;;10.09;100.00;99605.56;4991844;28;20109;-74
2023/10/31 02:33:06;;;;;;;42.53;22.45;;;;;;;10.10;100.00;99599.22;5008001;28;20037;-73
2023/10/31 02:35:32;;;;;;;37.35;22.77;;;;;;;10.11;100.00;99606.25;5003766;28;20022;-74
2023/10/31 02:37:57;;;;;;;33.75;22.95;;;;;;;10.10;100.00;99612.63;5006986;28;20018;-74
2023/10/31 02:40:23;;;;;;;36.50;24.58;;;;;;;10.10;100.00;99611.78;5011313;28;20030;-73
2023/10/31 02:42:48;;;;;;;39.67;25.33;;;;;;;10.10;100.00;99614.44;5009647;28;20470;-73
2023/10/31 02:45:14;;;;;;;36.90;23.60;;;;;;;10.10;100.00;99628.75;5006655;28;20049;-73
2023/10/31 02:47:39;;;;;;;37.17;23.90;;;;;;;10.08;100.00;99617.28;4991545;28;20033;-73
2023/10/31 02:50:05;;;;;;;38.55;25.17;;;;;;;10.09;100.00;99620.84;5011367;28;20033;-75
2023/10/31 02:52:31;;;;;;;39.47;25.02;;;;;;;10.09;100.00;99618.16;5012118;28;20038;-73
2023/10/31 02:54:56;;;;;;;36.05;23.48;;;;;;;10.08;100.00;99624.50;5007486;28;20038;-74
2023/10/31 02:57:22;;;;;;;37.40;24.27;;;;;;;10.07;100.00;99620.97;5009304;28;20475;-73
2023/10/31 02:59:48;;;;;;;34.40;22.73;;;;;;;10.07;100.00;99620.97;4993447;28;20070;-72
2023/10/31 03:02:13;;;;;;;38.65;24.05;;;;;;;10.06;100.00;99630.00;5011580;28;20034;-75
2023/10/31 03:04:38;;;;;;;38.00;24.73;;;;;;;10.06;100.00;99635.38;4991067;28;20041;-73
2023/10/31 03:07:03;;;;;;;34.58;22.75;;;;;;;10.05;100.00;99632.84;5022245;28;20018;-74
2023/10/31 03:09:29;;;;;;;41.42;24.80;;;;;;;10.06;100.00;99646.13;5019724;28;20032;-74
2023/10/31 03:11:54;;;;;;;38.17;25.08;;;;;;;10.06;100.00;99638.06;5003730;28;20103;-75
2023/10/31 03:14:19;;;;;;;37.72;24.10;;;;;;;10.07;100.00;99645.13;5000643;28;20108;-78
2023/10/31 03:16:45;;;;;;;36.67;24.25;;;;;;;10.08;100.00;99649.50;5002453;28;20033;-76
2023/10/31 03:19:10;;;;;;;37.33;24.58;;;;;;;10.06;100.00;99651.47;5003597;28;20030;-77
2023/10/31 03:21:35;;;;;;;36.55;24.40;;;;;;;10.07;100.00;99661.25;4997769;28;20034;-76
2023/10/31 03:24:00;;;;;;;39.08;26.00;;;;;;;10.08;100.00;99657.53;4988063;28;20117;-76
2023/10/31 03:26:26;;;;;;;38.75;25.58;;;;;;;10.09;100.00;99663.78;5006384;28;20214;-77
2023/10/31 03:28:56;;;;;;;39.42;25.85;;;;;;;10.10;100.00;99669.00;4987061;28;20037;-76
2023/10/31 03:31:22;;;;;;;43.58;25.48;;;;;;;10.09;100.00;99672.69;4989897;28;20510;-76
2023/10/31 03:33:47;;;;;;;39.03;26.60;;;;;;;10.10;100.00;99679.75;4997648;28;20069;-76
2023/10/31 03:36:12;;;;;;;41.90;25.05;;;;;;;10.12;100.00;99679.63;5008095;28;20041;-76
2023/10/31 03:38:38;;;;;;;40.97;27.58;;;;;;;10.11;100.00;99673.38;4994968;28;20451;-76
2023/10/31 03:41:03;;;;;;;40.35;27.15;;;;;;;10.12;100.00;99672.41;4989651;28;20021;-76
2023/10/31 03:43:29;;;;;;;45.03;27.83;;;;;;;10.12;100.00;99682.31;5009320;28;20041;-76
2023/10/31 03:45:54;;;;;;;42.83;26.70;;;;;;;10.12;100.00;99679.63;4996596;28;20026;-76
2023/10/31 03:48:19;;;;;;;37.67;25.90;;;;;;;10.13;100.00;99681.28;5007398;28;20026;-75
2023/10/31 03:50:45;;;;;;;40.15;27.02;;;;;;;10.14;100.00;99688.38;5007427;28;20483;-76
2023/10/31 03:53:10;;;;;;;40.17;27.27;;;;;;;10.14;100.00;99699.09;5004863;28;20040;-77
2023/10/31 03:55:36;;;;;;;43.35;28.30;;;;;;;10.15;100.00;99696.28;5017723;28;20030;-76
2023/10/31 03:58:01;;;;;;;41.53;27.42;;;;;;;10.14;100.00;99710.69;5018506;28;20290;-76
2023/10/31 04:00:27;;;;;;;40.70;27.38;;;;;;;10.16;100.00;99707.84;5011683;28;20049;-76
2023/10/31 04:02:52;;;;;;;39.60;26.52;;;;;;;10.17;100.00;99708.72;5019079;28;20040;-76
2023/10/31 04:05:18;;;;;;;39.35;26.38;;;;;;;10.19;100.00;99712.09;5011168;28;20033;-77
2023/10/31 04:07:45;;;;;;;38.33;24.75;;;;;;;10.18;100.00;99713.13;5002484;28;20036;-76
2023/10/31 04:10:10;;;;;;;38.55;25.20;;;;;;;10.14;100.00;99713.38;5011918;28;20036;-76
2023/10/31 04:12:36;;;;;;;40.60;27.85;;;;;;;10.15;100.00;99704.34;5018699;28;20116;-76
2023/10/31 04:15:02;;;;;;;38.85;25.30;;;;;;;10.15;100.00;99717.75;5001907;28;20225;-77
2023/10/31 04:17:28;;;;;;;36.10;23.45;;;;;;;10.14;100.00;99716.06;5011804;28;20026;-76
2023/10/31 04:19:53;;;;;;;38.83;24.45;;;;;;;10.13;100.00;99722.44;5017868;28;20399;-76
2023/10/31 04:22:18;;;;;;;37.75;24.05;;;;;;;10.12;100.00;99725.25;5012421;28;20503;-80
2023/10/31 04:24:44;;;;;;;36.33;22.88;;;;;;;10.09;100.00;99726.38;5007292;28;20089;-80
2023/10/31 04:27:09;;;;;;;37.40;22.50;;;;;;;10.11;100.00;99731.59;5018680;28;20033;-80
2023/10/31 04:29:34;;;;;;;34.90;21.77;;;;;;;10.09;100.00;99731.75;5018729;28;20340;-80
2023/10/31 04:32:00;;;;;;;35.03;20.70;;;;;;;10.08;100.00;99735.41;5011627;28;20070;-80
2023/10/31 04:34:25;;;;;;;35.10;21.83;;;;;;;10.11;100.00;99743.19;5014668;28;20017;-80
2023/10/31 04:36:50;;;;;;;33.70;20.60;;;;;;;10.11;100.00;99745.88;5002065;28;20022;-80
2023/10/31 04:39:16;;;;;;;32.28;20.73;;;;;;;10.10;100.00;99752.25;5011409;28;20586;-80
2023/10/31 04:41:41;;;;;;;33.80;21.38;;;;;;;10.10;100.00;99752.25;5010668;28;20029;-79
2023/10/31 04:44:06;;;;;;;35.15;20.90;;;;;;;10.09;100.00;99757.75;5001521;28;20364;-80
2023/10/31 04:46:32;;;;;;;35.95;21.15;;;;;;;10.08;100.00;99762.25;5011528;28;20044;-80
2023/10/31 04:48:57;;;;;;;32.95;21.40;;;;;;;10.09;100.00;99766.63;5011478;28;20033;-79
2023/10/31 04:51:22;;;;;;;33.95;18.58;;;;;;;10.06;100.00;99766.03;5003556;28;20092;-79
2023/10/31 04:53:48;;;;;;;30.80;18.33;;;;;;;10.02;100.00;99761.97;5006714;28;20109;-79
2023/10/31 04:56:14;;;;;;;29.60;16.08;;;;;;;10.00;100.00;99769.28;5010960;28;20034;-80
2023/10/31 04:58:41;;;;;;;28.75;16.48;;;;;;;9.96;100.00;99782.13;5010005;28;20045;-80
2023/10/31 05:01:08;;;;;;;28.88;17.42;;;;;;;9.93;100.00;99769.00;5008253;28;20044;-80
2023/10/31 05:03:34;;;;;;;31.58;17.65;;;;;;;9.90;100.00;99774.63;4998857;28;20115;-80
2023/10/31 05:05:59;;;;;;;31.38;18.77;;;;;;;9.89;100.00;99778.28;5009186;28;20057;-79
2023/10/31 05:08:24;;;;;;;29.73;19.10;;;;;;;9.86;100.00;99782.09;5010866;28;20055;-79
2023/10/31 05:10:50;;;;;;;32.65;19.67;;;;;;;9.87;100.00;99780.25;5014711;28;20057;-79
2023/10/31 05:13:15;;;;;;;36.22;21.92;;;;;;;9.85;100.00;99768.81;5010935;28;20580;-79
2023/10/31 05:15:40;;;;;;;31.70;20.70;;;;;;;9.86;100.00;99774.03;5001300;28;20029;-80
2023/10/31 05:18:05;;;;;;;33.60;20.17;;;;;;;9.87;100.00;99777.56;5010869;28;20034;-79
2023/10/31 05:20:31;;;;;;;30.02;19.20;;;;;;;9.86;100.00;99775.88;5017005;28;20380;-80
2023/10/31 05:22:56;;;;;;;30.70;19.58;;;;;;;9.83;100.00;99771.63;5001060;28;20217;-80
2023/10/31 05:25:21;;;;;;;32.53;19.75;;;;;;;9.83;100.00;99773.47;5007773;28;20390;-80
2023/10/31 05:27:48;;;;;;;31.65;20.35;;;;;;;9.82;100.00;99764.53;5007833;28;20038;-80
2023/10/31 05:30:14;;;;;;;30.55;19.70;;;;;;;9.82;100.00;99769.06;5010653;28;20088;-80
2023/10/31 05:32:39;;;;;;;31.13;19.52;;;;;;;9.80;100.00;99767.38;5002106;28;20034;-75
2023/10/31 05:35:05;;;;;;;29.52;19.92;;;;;;;9.79;100.00;99764.81;5011654;28;20057;-75
2023/10/31 05:37:30;;;;;;;30.05;19.10;;;;;;;9.79;100.00;99765.69;5012003;28;20282;-75
2023/10/31 05:39:55;;;;;;;29.25;18.48;;;;;;;9.79;100.00;99775.56;4997498;28;20131;-76
2023/10/31 05:42:21;;;;;;;29.60;19.02;;;;;;;9.77;100.00;99790.94;5022656;28;20048;-75
2023/10/31 05:44:46;;;;;;;35.10;18.52;;;;;;;9.78;100.00;99793.50;5016802;28;20029;-75
2023/10/31 05:47:11;;;;;;;29.98;19.00;;;;;;;9.78;100.00;99803.34;5011184;28;20476;-74
2023/10/31 05:49:36;;;;;;;29.40;19.15;;;;;;;9.77;100.00;99802.53;5010329;28;20069;-75
2023/10/31 05:52:02;;;;;;;29.02;18.05;;;;;;;9.76;100.00;99800.81;5011991;28;20083;-75
2023/10/31 05:54:27;;;;;;;28.23;18.25;;;;;;;9.75;100.00;99803.63;5012222;28;20037;-75
2023/10/31 05:56:53;;;;;;;27.95;17.23;;;;;;;9.74;100.00;99812.69;5019378;28;20162;-74
2023/10/31 05:59:18;;;;;;;29.33;17.55;;;;;;;9.74;100.00;99823.41;5018138;28;20403;-75
2023/10/31 06:01:43;;;;;;;27.15;16.08;;;;;;;9.71;100.00;99813.78;5011935;28;20472;-74
2023/10/31 06:04:08;;;;;;;30.98;17.27;;;;;;;9.68;100.00;99824.78;5017727;28;20061;-75
2023/10/31 06:06:38;;;;;;;26.00;15.52;;;;;;;9.69;100.00;99834.50;4985433;28;20193;-75
2023/10/31 06:09:04;;;;;;;27.98;16.40;;;;;;;9.66;100.00;99826.72;5014901;28;20378;-74
2023/10/31 06:11:29;;;;;;;29.27;16.40;;;;;;;9.64;100.00;99827.88;5007483;28;20029;-74
2023/10/31 06:13:55;;;;;;;28.55;15.57;;;;;;;9.63;100.00;99827.00;5011097;28;20021;-75
2023/10/31 06:16:21;;;;;;;26.52;15.02;;;;;;;9.60;100.00;99832.63;5018200;28;20456;-74
2023/10/31 06:18:46;;;;;;;28.85;17.00;;;;;;;9.57;100.00;99835.59;5011365;28;20144;-76
2023/10/31 06:21:11;;;;;;;28.60;15.82;;;;;;;9.54;100.00;99839.38;5010201;28;20025;-76
2023/10/31 06:23:38;;;;;;;26.70;14.70;;;;;;;9.53;100.00;99851.09;5010071;28;20036;-75
2023/10/31 06:26:04;;;;;;;28.92;16.48;;;;;;;9.54;100.00;99849.25;5009633;28;20129;-76
2023/10/31 06:28:29;;;;;;;28.83;17.52;;;;;;;9.54;100.00;99860.00;5014555;28;20025;-74
2023/10/31 06:30:54;;;;;;;29.55;17.67;;;;;;;9.52;100.00;99862.81;5002921;28;20048;-75
2023/10/31 06:33:19;;;;;;;29.70;16.55;;;;;;;9.53;100.00;99863.66;4990337;28;20025;-75
2023/10/31 06:35:45;;;;;;;27.52;16.60;;;;;;;9.52;100.00;99865.50;5007116;28;20437;-75
2023/10/31 06:38:10;;;;;;;28.75;16.45;;;;;;;9.50;100.00;99859.38;5002494;28;20041;-77
2023/10/31 06:40:35;;;;;;;31.10;18.42;;;;;;;9.51;100.00;99870.97;4984295;28;20129;-76
2023/10/31 06:43:01;;;;;;;30.20;17.55;;;;;;;9.51;100.00;99871.81;5005307;28;20027;-78
2023/10/31 06:45:27;;;;;;;29.58;17.55;;;;;;;9.52;100.00;99870.00;5014731;28;20045;-78
2023/10/31 06:47:52;;;;;;;28.92;18.35;;;;;;;9.54;100.00;99873.41;4993118;28;20116;-79
2023/10/31 06:50:17;;;;;;;28.58;17.42;;;;;;;9.56;100.00;99877.66;5011946;28;20026;-78
2023/10/31 06:52:42;;;;;;;29.23;17.35;;;;;;;9.57;100.00;99875.81;5011688;28;20045;-78
2023/10/31 06:55:08;;;;;;;30.35;18.23;;;;;;;9.58;100.00;99886.41;5012553;28;20053;-78
2023/10/31 06:57:33;;;;;;;29.65;17.80;;;;;;;9.61;100.00;99885.31;5012581;28;20112;-78
2023/10/31 06:59:58;;;;;;;26.77;16.60;;;;;;;9.60;100.00;99888.97;5010206;28;20484;-78
2023/10/31 07:02:25;;;;;;;31.52;17.15;;;;;;;9.62;100.00;99887.88;5012272;28;20033;-78
2023/10/31 07:04:50;;;;;;;29.08;17.17;;;;;;;9.60;100.00;99889.84;4998922;28;20026;-78
2023/10/31 07:07:16;;;;;;;25.65;15.07;;;;;;;9.59;100.00;99889.94;5015829;28;20026;-78
2023/10/31 07:09:41;;;;;;;24.92;14.98;;;;;;;9.59;100.00;99895.31;5017951;28;20038;-78
2023/10/31 07:12:06;;;;;;;27.60;16.13;;;;;;;9.61;100.00;99898.72;5005255;28;20045;-78
2023/10/31 07:14:32;;;;;;;24.85;14.43;;;;;;;9.61;100.00;99896.03;5009680;28;20033;-78
2023/10/31 07:16:57;;;;;;;25.67;13.90;;;;;;;9.64;100.00;99903.00;5028881;28;20483;-77
2023/10/31 07:19:22;;;;;;;26.20;13.95;;;;;;;9.62;100.00;99905.81;5028118;28;20040;-78
2023/10/31 07:21:48;;;;;;;25.90;14.93;;;;;;;9.63;100.00;99896.75;5027225;28;20029;-78
2023/10/31 07:24:13;;;;;;;25.15;13.75;;;;;;;9.64;100.00;99903.00;5012577;28;20110;-77
2023/10/31 07:26:39;;;;;;;24.45;12.93;;;;;;;9.64;100.00;99903.84;5018386;28;20060;-78
2023/10/31 07:29:04;;;;;;;25.38;12.60;;;;;;;9.65;100.00;99913.59;4997009;28;20037;-78
2023/10/31 07:31:30;;;;;;;24.73;12.93;;;;;;;9.66;100.00;99917.94;5017349;28;20022;-78
2023/10/31 07:33:56;;;;;;;24.40;12.88;;;;;;;9.69;100.00;99922.22;5012289;28;20045;-78
2023/10/31 07:36:21;;;;;;;26.02;13.68;;;;;;;9.68;100.00;99924.06;5030351;28;20049;-78
2023/10/31 07:38:47;;;;;;;25.02;13.73;;;;;;;9.68;100.00;99917.81;5014159;28;20037;-78
2023/10/31 07:41:13;;;;;;;24.75;12.82;;;;;;;9.68;100.00;99916.00;5020938;28;20041;-78
2023/10/31 07:43:38;;;;;;;24.92;13.90;;;;;;;9.68;100.00;99916.00;5015410;28;20044;-78
2023/10/31 07:46:04;;;;;;;25.83;12.80;;;;;;;9.68;100.00;99924.06;5031850;28;20030;-78
2023/10/31 07:48:29;;;;;;;25.75;14.57;;;;;;;9.68;100.00;99921.38;5024010;28;20033;-78
2023/10/31 07:50:54;;;;;;;26.80;13.73;;;;;;;9.67;100.00;99925.03;5028989;28;20026;-78
2023/10/31 07:53:19;;;;;;;25.92;13.90;;;;;;;9.69;100.00;99920.38;5020192;28;20068;-77
2023/10/31 07:55:45;;;;;;;30.85;14.82;;;;;;;9.68;100.00;99926.75;5006959;28;20029;-79
2023/10/31 07:58:10;;;;;;;25.75;14.80;;;;;;;9.69;100.00;99917.69;5016860;28;20369;-79
2023/10/31 08:00:36;;;;;;;27.88;14.68;;;;;;;9.69;100.00;99920.38;5016408;28;20049;-78
2023/10/31 08:03:02;;;;;;;26.48;15.45;;;;;;;9.72;100.00;99928.19;5028168;28;20021;-78
2023/10/31 08:05:27;;;;;;;27.30;16.42;;;;;;;9.72;100.00;99927.31;5009988;28;20041;-77
2023/10/31 08:07:52;;;;;;;27.75;15.68;;;;;;;9.74;100.00;99936.13;5017696;28;20024;-77
2023/10/31 08:10:18;;;;;;;27.35;15.90;;;;;;;9.79;100.00;99941.94;5016649;28;20120;-78
2023/10/31 08:12:43;;;;;;;28.80;18.15;;;;;;;9.80;100.00;99936.44;5017266;28;20037;-79
2023/10/31 08:15:09;;;;;;;28.80;18.23;;;;;;;9.84;100.00;99946.91;5016536;28;20153;-78
2023/10/31 08:17:35;;;;;;;32.88;20.05;;;;;;;9.86;100.00;99942.28;5013783;28;20030;-78
2023/10/31 08:20:03;;;;;;;31.40;19.17;;;;;;;9.86;100.00;99942.28;5009183;28;20037;-78
2023/10/31 08:22:28;;;;;;;29.90;18.75;;;;;;;9.86;100.00;99942.28;5017914;28;20080;-78
2023/10/31 08:24:53;;;;;;;29.42;18.55;;;;;;;9.88;100.00;99948.34;5017448;28;20014;-78
2023/10/31 08:27:18;;;;;;;29.98;17.92;;;;;;;9.88;100.00;99945.66;5006831;28;20069;-79
2023/10/31 08:29:44;;;;;;;27.45;17.38;;;;;;;9.90;100.00;99951.75;5014992;28;20033;-78
2023/10/31 08:32:09;;;;;;;29.60;18.60;;;;;;;9.91;100.00;99953.44;5007891;28;20133;-78
2023/10/31 08:34:34;;;;;;;29.45;16.13;;;;;;;9.93;100.00;99956.88;5022380;28;20040;-78
2023/10/31 08:37:00;;;;;;;29.13;17.98;;;;;;;9.91;100.00;99956.13;5027581;28;20116;-78
2023/10/31 08:39:26;;;;;;;30.17;18.15;;;;;;;9.94;100.00;99948.69;5018498;28;20040;-78
2023/10/31 08:41:55;;;;;;;30.63;17.85;;;;;;;9.97;100.00;99955.59;5017805;28;20022;-78
2023/10/31 08:44:22;;;;;;;29.38;16.42;;;;;;;9.99;100.00;99960.88;5017182;28;20457;-78
2023/10/31 08:46:47;;;;;;;31.65;17.20;;;;;;;10.02;100.00;99961.44;5021949;28;20026;-78
2023/10/31 08:49:13;;;;;;;28.58;16.60;;;;;;;10.04;100.00;99972.88;5016688;28;20053;-79
2023/10/31 08:51:39;;;;;;;29.40;17.00;;;;;;;10.05;100.00;99982.66;5021205;28;20030;-78
2023/10/31 08:54:08;;;;;;;29.42;17.23;;;;;;;10.08;100.00;99976.19;5010947;28;20025;-78
2023/10/31 08:56:34;;;;;;;32.42;17.55;;;;;;;10.13;100.00;99982.88;5021390;28;20072;-79
2023/10/31 08:58:59;;;;;;;31.35;16.67;;;;;;;10.15;100.00;99991.63;5023453;28;20442;-78
2023/10/31 09:01:26;;;;;;;29.52;16.20;;;;;;;10.15;100.00;100002.38;5008118;28;20034;-77
2023/10/31 09:03:52;;;;;;;30.20;16.75;;;;;;;10.16;100.00;100003.22;5017903;28;20022;-76
2023/10/31 09:06:17;;;;;;;32.03;16.15;;;;;;;10.17;100.00;100012.13;5008892;28;20541;-74
2023/10/31 09:08:43;;;;;;;27.42;15.75;;;;;;;10.22;100.00;100005.41;5013779;28;20045;-75
2023/10/31 09:11:08;;;;;;;28.70;15.98;;;;;;;10.23;100.00;100017.81;5013307;28;20491;-75
2023/10/31 09:13:33;;;;;;;31.60;18.63;;;;;;;10.24;100.00;100013.31;5020632;28;20029;-74
2023/10/31 09:15:59;;;;;;;32.78;16.98;;;;;;;10.27;100.00;100021.13;5019212;28;20443;-75
2023/10/31 09:18:25;;;;;;;34.28;17.00;;;;;;;10.29;100.00;100021.81;5019985;28;20045;-75
2023/10/31 09:20:51;;;;;;;28.35;16.45;;;;;;;10.31;100.00;100026.09;5013803;28;20025;-75
2023/10/31 09:23:17;;;;;;;29.23;16.77;;;;;;;10.31;100.00;100034.16;5007931;28;20108;-76
2023/10/31 09:25:43;;;;;;;31.42;15.60;;;;;;;10.31;100.00;100036.00;5011425;28;20034;-75
2023/10/31 09:28:08;;;;;;;33.05;17.08;;;;;;;10.34;100.00;100040.25;5020929;28;20029;-76
2023/10/31 09:30:33;;;;;;;30.55;17.25;;;;;;;10.36;100.00;100046.38;5013830;28;20121;-74
2023/10/31 09:32:59;;;;;;;28.38;16.45;;;;;;;10.39;100.00;100051.47;5013321;28;20113;-75
2023/10/31 09:35:24;;;;;;;29.92;17.45;;;;;;;10.39;100.00;100063.06;5020116;28;20041;-76
2023/10/31 09:37:50;;;;;;;29.92;15.82;;;;;;;10.42;100.00;100053.91;5008918;28;20081;-75
2023/10/31 09:40:16;;;;;;;34.03;16.80;;;;;;;10.41;100.00;100063.78;5011737;28;20624;-75
2023/10/31 09:42:41;;;;;;;29.50;17.10;;;;;;;10.43;100.00;100080.63;5013730;28;20113;-75
2023/10/31 09:45:10;;;;;;;28.83;15.95;;;;;;;10.42;100.00;100076.22;5015192;28;20032;-75
2023/10/31 09:47:36;;;;;;;27.95;15.18;;;;;;;10.41;100.00;100074.53;5020896;28;20033;-74
2023/10/31 09:50:01;;;;;;;29.50;15.63;;;;;;;10.40;100.00;100072.81;5005750;28;20026;-74
2023/10/31 09:52:26;;;;;;;26.83;15.40;;;;;;;10.42;100.00;100070.84;5013406;28;20025;-74
2023/10/31 09:54:53;;;;;;;30.45;15.82;;;;;;;10.45;100.00;100077.81;5013716;28;20075;-76
2023/10/31 09:57:18;;;;;;;28.55;15.70;;;;;;;10.47;100.00;100073.16;5017759;28;20042;-75
2023/10/31 09:59:44;;;;;;;27.05;15.02;;;;;;;10.47;100.00;100074.00;5013314;28;20140;-75
2023/10/31 10:02:09;;;;;;;27.63;14.75;;;;;;;10.54;100.00;100074.34;5014195;28;20387;-74
2023/10/31 10:04:36;;;;;;;27.63;15.05;;;;;;;10.60;100.00;100086.38;5013739;28;20052;-74
2023/10/31 10:07:02;;;;;;;27.35;14.88;;;;;;;10.62;100.00;100081.75;5015495;28;20052;-75
2023/10/31 10:09:29;;;;;;;30.65;14.90;;;;;;;10.65;100.00;100084.16;5022216;28;20479;-75
2023/10/31 10:11:55;;;;;;;27.77;14.27;;;;;;;10.65;100.00;100092.22;5005177;28;20395;-75
2023/10/31 10:14:23;;;;;;;25.13;13.35;;;;;;;10.65;100.00;100094.91;5013045;28;20029;-75
2023/10/31 10:16:49;;;;;;;27.02;14.32;;;;;;;10.67;100.00;100106.38;4997082;28;20080;-75
2023/10/31 10:19:22;;;;;;;28.30;14.93;;;;;;;10.66;100.00;100107.38;5017624;28;20482;-74
2023/10/31 10:21:58;;;;;;;27.73;15.13;;;;;;;10.63;100.00;100104.94;5004620;28;20025;-75
2023/10/31 10:24:24;;;;;;;25.77;13.88;;;;;;;10.64;100.00;100110.19;5019039;28;20029;-76
2023/10/31 10:26:50;;;;;;;29.02;14.40;;;;;;;10.64;100.00;100120.06;5009852;28;20331;-76
2023/10/31 10:29:16;;;;;;;24.98;12.50;;;;;;;10.64;100.00;100114.69;5014637;28;20033;-75
2023/10/31 10:31:42;;;;;;;23.50;12.10;;;;;;;10.67;100.00;100119.81;5009369;28;20367;-76
2023/10/31 10:34:08;;;;;;;27.85;13.30;;;;;;;10.71;100.00;100120.41;5008404;28;20039;-76
2023/10/31 10:36:34;;;;;;;27.02;12.65;;;;;;;10.73;100.00;100119.31;5007651;28;20030;-76
2023/10/31 10:39:00;;;;;;;24.90;12.88;;;;;;;10.76;100.00;100131.59;4999718;28;20017;-76
2023/10/31 10:41:26;;;;;;;24.90;12.35;;;;;;;10.80;100.00;100133.91;5009602;28;20018;-76
2023/10/31 10:43:56;;;;;;;23.17;12.00;;;;;;;10.83;100.00;100133.66;5009461;28;20032;-76
2023/10/31 10:46:24;;;;;;;;;;;;;;;10.90;100.00;100136.66;5009769;28;20026;-74
2023/10/31 10:48:54;;;;;;;24.95;12.57;;;;;;;10.89;100.00;100140.31;4996741;28;19917;-76
2023/10/31 10:51:27;;;;;;;27.55;13.45;;;;;;;10.90;100.00;100146.56;5015645;28;20757;-76
2023/10/31 10:53:58;;;;;;;24.00;11.30;;;;;;;10.91;100.00;100153.63;5003935;28;20068;-75
2023/10/31 10:56:41;;;;;;;26.98;12.23;;;;;;;10.89;100.00;100158.28;5015901;28;20030;-75
2023/10/31 10:59:38;;;;;;;24.13;12.30;;;;;;;10.90;100.00;100150.09;5009044;28;20125;-76
2023/10/31 11:02:05;;;;;;;26.13;12.00;;;;;;;10.88;100.00;100149.38;5002872;28;20041;-75
2023/10/31 11:04:33;;;;;;;24.77;12.40;;;;;;;10.88;100.00;100145.81;5008237;28;20025;-75